createdAt,value
2019-05-02T00:01:30.148Z,15.70
2019-05-02T00:03:59.137Z,14.13
2019-05-02T00:06:28.673Z,11.53
2019-05-02T00:08:57.673Z,16.33
2019-05-02T00:11:28.114Z,14.40
2019-05-02T00:13:57.115Z,14.27
2019-05-02T00:16:26.049Z,14.93
2019-05-02T00:18:55.055Z,16.80
2019-05-02T00:21:23.993Z,16.10
2019-05-02T00:23:52.890Z,16.77
2019-05-02T00:26:24.655Z,16.23
2019-05-02T00:28:52.375Z,17.67
2019-05-02T00:31:21.722Z,16.67
2019-05-02T00:33:50.618Z,17.87
2019-05-02T00:36:19.566Z,18.10
2019-05-02T00:38:48.469Z,20.77
2019-05-02T00:41:17.449Z,24.07
2019-05-02T00:43:46.349Z,19.87
2019-05-02T00:46:15.307Z,19.40
2019-05-02T00:48:45.806Z,20.97
2019-05-02T00:51:14.703Z,22.23
2019-05-02T00:53:44.390Z,17.50
2019-05-02T00:56:14.198Z,25.10
2019-05-02T00:58:43.155Z,23.57
2019-05-02T01:01:29.468Z,18.57
2019-05-02T01:04:00.530Z,20.13
2019-05-02T01:06:29.428Z,23.40
2019-05-02T01:08:58.375Z,21.13
2019-05-02T01:11:31.846Z,17.90
2019-05-02T01:13:58.650Z,18.90
2019-05-02T01:16:27.559Z,20.67
2019-05-02T01:18:56.502Z,23.23
2019-05-02T01:21:25.766Z,23.40
2019-05-02T01:23:59.031Z,20.33
2019-05-02T01:26:29.187Z,19.30
2019-05-02T01:29:14.025Z,18.87
2019-05-02T01:31:49.911Z,20.10
2019-05-02T01:34:31.538Z,20.77
2019-05-02T01:37:20.778Z,23.30
2019-05-02T01:39:47.900Z,18.47
2019-05-02T01:42:16.816Z,22.20
2019-05-02T01:44:45.773Z,21.47
2019-05-02T01:47:14.684Z,21.23
2019-05-02T01:49:43.611Z,22.00
2019-05-02T01:52:12.546Z,18.23
2019-05-02T01:54:45.728Z,18.23
2019-05-02T01:57:12.036Z,21.17
2019-05-02T01:59:40.991Z,15.70
2019-05-02T02:02:09.987Z,17.00
2019-05-02T02:04:38.925Z,12.40
2019-05-02T02:07:07.835Z,10.03
2019-05-02T02:09:38.932Z,14.47
2019-05-02T02:12:09.771Z,10.97
2019-05-02T02:14:37.917Z,16.57
2019-05-02T02:17:10.115Z,10.77
2019-05-02T02:19:40.581Z,10.00
2019-05-02T02:22:11.179Z,11.23
2019-05-02T02:24:47.679Z,12.70
2019-05-02T02:27:19.900Z,8.73
2019-05-02T02:29:47.534Z,12.17
2019-05-02T02:32:20.017Z,12.00
2019-05-02T02:34:47.019Z,12.37
2019-05-02T02:37:15.933Z,10.93
2019-05-02T02:39:48.562Z,12.53
2019-05-02T02:42:15.426Z,11.50
2019-05-02T02:44:51.395Z,9.07
2019-05-02T02:47:21.236Z,14.93
2019-05-02T02:49:56.041Z,10.73
2019-05-02T02:52:20.926Z,7.90
2019-05-02T02:54:49.845Z,9.83
2019-05-02T02:57:25.608Z,9.90
2019-05-02T02:59:49.418Z,8.67
2019-05-02T03:02:18.362Z,8.10
2019-05-02T03:04:47.258Z,7.27
2019-05-02T03:07:24.661Z,7.43
2019-05-02T03:09:46.849Z,6.83
2019-05-02T03:12:23.356Z,9.10
2019-05-02T03:14:53.933Z,8.20
2019-05-02T03:17:26.595Z,5.60
2019-05-02T03:19:54.435Z,9.67
2019-05-02T03:22:24.017Z,6.77
2019-05-02T03:24:52.916Z,6.03
2019-05-02T03:27:21.865Z,9.67
2019-05-02T03:29:50.751Z,6.70
2019-05-02T03:32:32.256Z,6.43
2019-05-02T03:34:53.282Z,5.17
2019-05-02T03:37:21.105Z,8.13
2019-05-02T03:39:57.163Z,7.20
2019-05-02T03:42:20.606Z,8.20
2019-05-02T03:44:56.990Z,5.30
2019-05-02T03:47:20.299Z,6.63
2019-05-02T03:49:51.923Z,7.70
2019-05-02T03:52:19.784Z,6.23
2019-05-02T03:54:52.066Z,9.13
2019-05-02T03:57:32.396Z,6.87
2019-05-02T03:59:50.215Z,5.07
2019-05-02T04:02:20.439Z,5.80
2019-05-02T04:04:54.292Z,5.67
2019-05-02T04:07:20.887Z,5.17
2019-05-02T04:09:49.791Z,5.03
2019-05-02T04:12:21.547Z,5.60
2019-05-02T04:14:55.311Z,4.20
2019-05-02T04:17:20.294Z,5.33
2019-05-02T04:19:50.443Z,4.80
2019-05-02T04:22:19.388Z,8.10
2019-05-02T04:24:54.526Z,5.07
2019-05-02T04:27:18.946Z,5.30
2019-05-02T04:29:47.895Z,4.77
2019-05-02T04:32:16.789Z,8.60
2019-05-02T04:34:48.911Z,5.87
2019-05-02T04:37:16.278Z,5.83
2019-05-02T04:39:45.211Z,6.77
2019-05-02T04:42:19.707Z,6.87
2019-05-02T04:45:09.513Z,6.97
2019-05-02T04:47:20.717Z,6.60
2019-05-02T04:49:49.073Z,5.50
2019-05-02T04:52:20.136Z,6.47
2019-05-02T04:54:48.745Z,6.57
2019-05-02T04:57:18.740Z,4.93
2019-05-02T04:59:50.372Z,7.13
2019-05-02T05:02:20.938Z,8.23
2019-05-02T05:04:49.570Z,6.73
2019-05-02T05:07:18.660Z,6.47
2019-05-02T05:09:57.171Z,8.00
2019-05-02T05:12:19.452Z,5.90
2019-05-02T05:14:48.593Z,5.93
2019-05-02T05:17:19.850Z,5.17
2019-05-02T05:19:48.773Z,6.47
2019-05-02T05:22:18.526Z,5.40
2019-05-02T05:24:58.428Z,4.87
2019-05-02T05:27:27.532Z,7.67
2019-05-02T05:29:59.492Z,6.33
2019-05-02T05:32:28.175Z,5.30
2019-05-02T05:34:57.986Z,7.93
2019-05-02T05:37:27.333Z,6.10
2019-05-02T05:39:58.050Z,6.03
2019-05-02T05:42:29.975Z,7.23
2019-05-02T05:44:58.330Z,7.03
2019-05-02T05:47:27.761Z,6.03
2019-05-02T05:49:59.365Z,5.97
2019-05-02T05:52:27.270Z,5.77
2019-05-02T05:54:57.892Z,5.70
2019-05-02T05:57:27.951Z,7.40
2019-05-02T05:59:58.436Z,4.50
2019-05-02T06:02:28.414Z,3.97
2019-05-02T06:05:02.523Z,7.73
2019-05-02T06:07:28.050Z,4.27
2019-05-02T06:09:57.009Z,3.67
2019-05-02T06:12:26.162Z,6.43
2019-05-02T06:15:01.469Z,4.47
2019-05-02T06:17:28.660Z,6.90
2019-05-02T06:19:57.666Z,6.03
2019-05-02T06:22:27.106Z,3.30
2019-05-02T06:24:56.031Z,3.77
2019-05-02T06:27:25.665Z,4.23
2019-05-02T06:29:56.167Z,5.13
2019-05-02T06:32:26.250Z,4.60
2019-05-02T06:34:55.393Z,3.57
2019-05-02T06:37:24.387Z,5.40
2019-05-02T06:39:53.329Z,3.23
2019-05-02T06:42:22.223Z,3.87
2019-05-02T06:44:54.811Z,2.30
2019-05-02T06:47:21.730Z,3.50
2019-05-02T06:49:50.689Z,1.97
2019-05-02T06:52:19.738Z,3.13
2019-05-02T06:54:48.682Z,2.90
2019-05-02T06:57:19.085Z,2.77
2019-05-02T06:59:49.977Z,2.37
2019-05-02T07:02:18.819Z,2.97
2019-05-02T07:04:47.827Z,2.60
2019-05-02T07:07:16.887Z,4.17
2019-05-02T07:09:46.208Z,4.33
2019-05-02T07:12:16.625Z,1.77
2019-05-02T07:14:45.936Z,2.57
2019-05-02T07:17:16.688Z,3.80
2019-05-02T07:19:49.956Z,2.10
2019-05-02T07:22:19.152Z,1.63
2019-05-02T07:24:48.174Z,3.07
2019-05-02T07:27:17.104Z,7.90
2019-05-02T07:29:46.037Z,2.53
2019-05-02T07:32:19.338Z,3.27
2019-05-02T07:34:48.271Z,3.27
2019-05-02T07:37:16.222Z,4.30
2019-05-02T07:39:45.151Z,9.10
2019-05-02T07:42:14.157Z,3.90
2019-05-02T07:44:43.079Z,4.03
2019-05-02T07:47:12.022Z,4.50
2019-05-02T07:49:40.923Z,4.73
2019-05-02T07:52:09.909Z,2.90
2019-05-02T07:54:38.803Z,2.10
2019-05-02T07:57:07.792Z,2.50
2019-05-02T07:59:36.754Z,4.17
2019-05-02T08:02:06.136Z,3.80
2019-05-02T08:04:35.073Z,4.20
2019-05-02T08:07:04.074Z,1.97
2019-05-02T08:09:33.041Z,3.93
2019-05-02T08:12:02.064Z,1.83
2019-05-02T08:14:34.692Z,2.93
2019-05-02T08:17:05.724Z,2.10
2019-05-02T08:19:32.220Z,2.60
2019-05-02T08:22:04.683Z,3.43
2019-05-02T08:24:32.984Z,2.80
2019-05-02T08:27:03.855Z,2.27
2019-05-02T08:29:32.919Z,2.60
2019-05-02T08:32:01.813Z,1.67
2019-05-02T08:34:32.122Z,3.93
2019-05-02T08:37:03.329Z,4.77
2019-05-02T08:39:34.013Z,3.83
2019-05-02T08:42:02.663Z,3.37
2019-05-02T08:44:31.637Z,2.90
2019-05-02T08:47:00.563Z,4.30
2019-05-02T08:49:29.547Z,4.50
2019-05-02T08:51:58.534Z,2.07
2019-05-02T08:54:28.033Z,4.10
2019-05-02T08:56:59.176Z,2.63
2019-05-02T08:59:28.740Z,2.77
2019-05-02T09:01:57.672Z,4.23
2019-05-02T09:04:29.163Z,1.87
2019-05-02T09:06:58.603Z,3.40
2019-05-02T09:09:29.598Z,3.90
2019-05-02T09:12:09.787Z,1.73
2019-05-02T09:14:29.557Z,4.50
2019-05-02T09:17:00.256Z,3.07
2019-05-02T09:19:31.581Z,3.23
2019-05-02T09:21:59.617Z,2.70
2019-05-02T09:24:28.595Z,4.17
2019-05-02T09:26:58.229Z,4.70
2019-05-02T09:29:27.118Z,2.73
2019-05-02T09:31:56.743Z,6.57
2019-05-02T09:34:26.769Z,1.90
2019-05-02T09:36:55.852Z,1.23
2019-05-02T09:39:27.327Z,2.90
2019-05-02T09:41:55.678Z,2.87
2019-05-02T09:44:24.585Z,2.13
2019-05-02T09:46:57.034Z,3.20
2019-05-02T09:49:24.081Z,2.50
2019-05-02T09:51:59.237Z,1.10
2019-05-02T09:54:24.767Z,2.17
2019-05-02T09:56:53.701Z,3.17
2019-05-02T09:59:29.932Z,3.10
2019-05-02T10:01:54.775Z,3.73
2019-05-02T10:04:23.680Z,4.17
2019-05-02T10:06:52.685Z,2.20
2019-05-02T10:09:23.996Z,3.63
2019-05-02T10:11:52.679Z,2.40
2019-05-02T10:14:22.572Z,2.60
2019-05-02T10:16:52.961Z,5.43
2019-05-02T10:19:25.813Z,2.87
2019-05-02T10:21:56.239Z,4.40
2019-05-02T10:24:23.414Z,0.83
2019-05-02T10:26:55.232Z,2.33
2019-05-02T10:29:28.226Z,1.70
2019-05-02T10:31:53.704Z,3.60
2019-05-02T10:34:22.856Z,2.40
2019-05-02T10:36:58.569Z,1.10
2019-05-02T10:39:23.496Z,0.80
2019-05-02T10:41:52.834Z,2.03
2019-05-02T10:44:22.693Z,2.90
2019-05-02T10:46:55.945Z,0.93
2019-05-02T10:49:29.119Z,2.63
2019-05-02T10:51:58.064Z,1.43
2019-05-02T10:54:27.898Z,3.90
2019-05-02T10:56:57.549Z,1.33
2019-05-02T10:59:26.456Z,1.20
2019-05-02T11:02:15.517Z,3.20
2019-05-02T11:04:45.994Z,3.47
2019-05-02T11:07:17.149Z,4.17
2019-05-02T11:09:45.492Z,6.13
2019-05-02T11:12:16.476Z,4.43
2019-05-02T11:14:56.993Z,4.97
2019-05-02T11:17:27.466Z,4.93
2019-05-02T11:19:57.979Z,5.43
2019-05-02T11:22:26.905Z,6.20
2019-05-02T11:24:55.855Z,3.93
2019-05-02T11:27:24.751Z,3.83
2019-05-02T11:29:54.122Z,5.43
2019-05-02T11:32:23.049Z,3.33
2019-05-02T11:34:52.485Z,5.60
2019-05-02T11:37:22.613Z,3.47
2019-05-02T11:39:55.098Z,3.17
2019-05-02T11:42:26.968Z,4.00
2019-05-02T11:44:52.938Z,3.53
2019-05-02T11:47:26.351Z,3.80
2019-05-02T11:49:55.889Z,6.30
2019-05-02T11:52:27.389Z,3.87
2019-05-02T11:54:53.654Z,4.20
2019-05-02T11:57:28.676Z,5.17
2019-05-02T11:59:53.151Z,4.00
2019-05-02T12:02:38.701Z,4.40
2019-05-02T12:05:12.766Z,4.80
2019-05-02T12:07:41.907Z,5.67
2019-05-02T12:10:12.493Z,7.07
2019-05-02T12:12:42.997Z,5.10
2019-05-02T12:15:12.785Z,6.70
2019-05-02T12:17:42.018Z,5.17
2019-05-02T12:20:11.904Z,6.37
2019-05-02T12:22:41.985Z,7.73
2019-05-02T12:25:12.634Z,3.83
2019-05-02T12:27:42.478Z,7.13
2019-05-02T12:30:11.868Z,5.30
2019-05-02T12:32:42.732Z,7.30
2019-05-02T12:35:11.921Z,5.67
2019-05-02T12:37:42.427Z,6.40
2019-05-02T12:40:12.343Z,4.10
2019-05-02T12:42:41.840Z,10.30
2019-05-02T12:45:12.308Z,8.37
2019-05-02T12:47:42.824Z,6.20
2019-05-02T12:50:13.565Z,6.80
2019-05-02T12:52:42.988Z,7.60
2019-05-02T12:55:12.878Z,6.67
2019-05-02T12:57:42.897Z,8.73
2019-05-02T13:00:13.018Z,9.40
2019-05-02T13:02:55.466Z,7.00
2019-05-02T13:05:24.423Z,6.43
2019-05-02T13:07:55.304Z,5.30
2019-05-02T13:10:42.282Z,3.77
2019-05-02T13:13:12.312Z,5.03
2019-05-02T13:15:42.374Z,4.47
2019-05-02T13:18:12.438Z,3.80
2019-05-02T13:20:42.594Z,7.07
2019-05-02T13:23:17.507Z,3.90
2019-05-02T13:25:46.419Z,4.17
2019-05-02T13:28:17.022Z,4.77
2019-05-02T13:30:53.877Z,7.10
2019-05-02T13:33:36.669Z,3.17
2019-05-02T13:36:05.870Z,5.73
2019-05-02T13:38:34.816Z,7.70
2019-05-02T13:41:03.719Z,7.20
2019-05-02T13:43:34.231Z,9.00
2019-05-02T13:46:12.478Z,5.63
2019-05-02T13:48:42.806Z,6.73
2019-05-02T13:51:11.926Z,7.47
2019-05-02T13:53:42.614Z,6.17
2019-05-02T13:56:18.929Z,7.60
2019-05-02T13:58:47.871Z,8.60
2019-05-02T14:01:17.892Z,6.53
2019-05-02T14:03:46.854Z,9.63
2019-05-02T14:06:15.753Z,9.37
2019-05-02T14:08:46.269Z,10.40
2019-05-02T14:11:16.757Z,8.07
2019-05-02T14:13:45.693Z,9.47
2019-05-02T14:16:14.592Z,8.40
2019-05-02T14:18:43.951Z,8.43
2019-05-02T14:21:12.847Z,9.13
2019-05-02T14:23:42.096Z,5.77
2019-05-02T14:26:11.740Z,6.53
2019-05-02T14:28:40.739Z,5.90
2019-05-02T14:31:11.793Z,4.97
2019-05-02T14:33:42.305Z,6.40
2019-05-02T14:36:11.721Z,13.97
2019-05-02T14:38:41.626Z,11.50
2019-05-02T14:41:15.355Z,6.23
2019-05-02T14:43:53.165Z,4.53
2019-05-02T14:46:22.580Z,5.50
2019-05-02T14:48:52.255Z,8.00
2019-05-02T14:51:27.383Z,7.53
2019-05-02T14:53:56.934Z,3.63
2019-05-02T14:56:45.936Z,3.90
2019-05-02T14:59:17.902Z,6.13
2019-05-02T15:01:46.845Z,5.70
2019-05-02T15:04:15.080Z,6.80
2019-05-02T15:06:47.410Z,5.30
2019-05-02T15:09:16.631Z,7.83
2019-05-02T15:11:49.526Z,5.60
2019-05-02T15:14:20.786Z,6.77
2019-05-02T15:16:49.746Z,8.70
2019-05-02T15:19:21.422Z,5.43
2019-05-02T15:21:52.498Z,4.57
2019-05-02T15:24:22.936Z,13.03
2019-05-02T15:26:52.469Z,10.20
2019-05-02T15:29:25.086Z,5.73
2019-05-02T15:31:57.936Z,4.93
2019-05-02T15:34:35.463Z,4.60
2019-05-02T15:37:04.946Z,9.33
2019-05-02T15:42:04.427Z,7.93
2019-05-02T15:44:33.326Z,7.80
2019-05-02T15:47:03.473Z,6.13
2019-05-02T15:49:36.654Z,5.50
2019-05-02T15:52:05.954Z,9.27
2019-05-02T15:54:34.925Z,4.63
2019-05-02T15:57:05.923Z,5.83
2019-05-02T15:59:42.055Z,6.97
2019-05-02T16:02:12.786Z,12.63
2019-05-02T16:04:42.687Z,13.37
2019-05-02T16:07:12.205Z,3.57
2019-05-02T16:09:41.716Z,9.40
2019-05-02T16:12:12.214Z,12.87
2019-05-02T16:14:42.476Z,9.90
2019-05-02T16:17:12.459Z,10.93
2019-05-02T16:19:43.228Z,10.53
2019-05-02T16:22:16.428Z,8.77
2019-05-02T16:24:49.016Z,14.97
2019-05-02T16:27:16.461Z,8.60
2019-05-02T16:29:46.583Z,7.70
2019-05-02T16:32:21.846Z,8.60
2019-05-02T16:34:55.193Z,9.33
2019-05-02T16:37:24.434Z,5.47
2019-05-02T16:39:53.335Z,5.93
2019-05-02T16:42:22.724Z,8.60
2019-05-02T16:44:54.432Z,5.13
2019-05-02T16:47:22.489Z,8.77
2019-05-02T16:49:53.132Z,6.53
2019-05-02T16:52:22.276Z,6.33
2019-05-02T16:54:52.687Z,6.97
2019-05-02T16:57:22.171Z,8.03
2019-05-02T16:59:53.893Z,9.57
2019-05-02T17:02:22.109Z,4.37
2019-05-02T17:04:52.023Z,6.50
2019-05-02T17:07:23.230Z,4.47
2019-05-02T17:09:53.716Z,7.27
2019-05-02T17:12:22.622Z,9.03
2019-05-02T17:15:09.814Z,4.23
2019-05-02T17:17:38.718Z,8.57
2019-05-02T17:20:12.996Z,11.70
2019-05-02T17:22:38.807Z,10.23
2019-05-02T17:25:08.048Z,7.37
2019-05-02T17:27:36.948Z,9.50
2019-05-02T17:30:08.843Z,9.57
2019-05-02T17:32:37.835Z,13.73
2019-05-02T17:35:09.939Z,8.43
2019-05-02T17:37:40.579Z,9.67
2019-05-02T17:40:09.784Z,10.63
2019-05-02T17:42:38.683Z,9.47
2019-05-02T17:45:11.023Z,12.60
2019-05-02T17:47:39.926Z,11.93
2019-05-02T17:50:17.949Z,8.47
2019-05-02T17:52:43.680Z,6.67
2019-05-02T17:55:12.822Z,8.97
2019-05-02T17:57:42.017Z,21.80
2019-05-02T18:00:16.679Z,8.20
2019-05-02T18:02:46.877Z,8.70
2019-05-02T18:05:14.300Z,11.40
2019-05-02T18:07:43.202Z,8.90
2019-05-02T18:10:16.745Z,8.60
2019-05-02T18:12:42.926Z,13.13
2019-05-02T18:15:12.242Z,7.53
2019-05-02T18:17:42.742Z,7.90
2019-05-02T18:20:12.484Z,10.10
2019-05-02T18:22:47.215Z,11.70
2019-05-02T18:25:16.345Z,10.37
2019-05-02T18:28:02.805Z,11.83
2019-05-02T18:30:31.753Z,8.53
2019-05-02T18:33:05.306Z,12.97
2019-05-02T18:35:32.524Z,13.13
2019-05-02T18:38:02.680Z,8.50
2019-05-02T18:40:32.128Z,17.40
2019-05-02T18:43:04.158Z,14.50
2019-05-02T18:45:31.969Z,9.50
2019-05-02T18:48:05.206Z,12.53
2019-05-02T18:50:44.499Z,15.60
2019-05-02T18:53:10.038Z,9.13
2019-05-02T18:55:39.353Z,10.07
2019-05-02T18:58:09.057Z,15.37
2019-05-02T19:00:39.638Z,16.20
2019-05-02T19:03:13.278Z,10.10
2019-05-02T19:05:42.253Z,13.57
2019-05-02T19:08:12.078Z,10.57
2019-05-02T19:10:44.692Z,13.13
2019-05-02T19:13:12.697Z,13.77
2019-05-02T19:15:45.281Z,11.97
2019-05-02T19:18:17.836Z,7.00
2019-05-02T19:20:57.558Z,16.60
2019-05-02T19:23:25.744Z,7.07
2019-05-02T19:25:54.645Z,9.10
2019-05-02T19:28:29.175Z,12.30
2019-05-02T19:30:57.248Z,11.30
2019-05-02T19:33:26.503Z,20.43
2019-05-02T19:35:55.402Z,12.80
2019-05-02T19:38:26.241Z,13.00
2019-05-02T19:40:58.122Z,14.60
2019-05-02T19:43:25.488Z,14.40
2019-05-02T19:45:54.591Z,16.73
2019-05-02T19:48:27.370Z,11.03
2019-05-02T19:50:54.591Z,12.63
2019-05-02T19:53:23.531Z,11.73
2019-05-02T19:55:57.158Z,10.27
2019-05-02T19:58:23.029Z,11.53
2019-05-02T20:00:52.629Z,9.60
2019-05-02T20:03:25.937Z,17.23
2019-05-02T20:05:56.742Z,13.40
2019-05-02T20:08:24.638Z,16.10
2019-05-02T20:10:58.275Z,10.67
2019-05-02T20:13:28.254Z,9.93
2019-05-02T20:16:06.054Z,16.67
2019-05-02T20:18:42.399Z,10.70
2019-05-02T20:21:12.248Z,15.20
2019-05-02T20:23:43.029Z,13.97
2019-05-02T20:26:15.221Z,15.07
2019-05-02T20:28:42.318Z,13.40
2019-05-02T20:31:12.324Z,12.63
2019-05-02T20:33:43.065Z,12.47
2019-05-02T20:36:12.460Z,9.67
2019-05-02T20:38:41.887Z,17.57
2019-05-02T20:41:12.649Z,12.63
2019-05-02T20:43:44.707Z,8.70
2019-05-02T20:46:12.443Z,12.57
2019-05-02T20:48:41.871Z,15.07
2019-05-02T20:51:12.204Z,12.87
2019-05-02T20:53:42.011Z,14.57
2019-05-02T20:56:12.393Z,9.60
2019-05-02T20:58:41.960Z,17.00
2019-05-02T21:01:12.379Z,15.50
2019-05-02T21:03:42.754Z,12.57
2019-05-02T21:06:19.239Z,11.80
2019-05-02T21:08:52.748Z,13.03
2019-05-02T21:11:22.544Z,10.33
2019-05-02T21:13:52.421Z,13.40
2019-05-02T21:16:21.816Z,9.60
2019-05-02T21:18:50.944Z,6.17
2019-05-02T21:21:21.960Z,11.50
2019-05-02T21:23:52.816Z,10.60
2019-05-02T21:26:22.077Z,8.93
2019-05-02T21:28:52.201Z,11.73
2019-05-02T21:31:22.512Z,11.47
2019-05-02T21:33:51.982Z,12.30
2019-05-02T21:36:22.709Z,12.67
2019-05-02T21:38:52.194Z,7.10
2019-05-02T21:41:22.197Z,19.43
2019-05-02T21:43:51.845Z,15.10
2019-05-02T21:46:22.400Z,13.47
2019-05-02T21:48:52.664Z,11.60
2019-05-02T21:51:23.478Z,14.47
2019-05-02T21:53:58.424Z,11.03
2019-05-02T21:56:44.607Z,17.00
2019-05-02T21:59:13.637Z,18.13
2019-05-02T22:01:51.974Z,13.27
2019-05-02T22:04:22.419Z,13.90
2019-05-02T22:06:52.736Z,16.70
2019-05-02T22:09:23.155Z,16.07
2019-05-02T22:11:52.340Z,15.73
2019-05-02T22:14:22.318Z,9.43
2019-05-02T22:16:52.968Z,15.83
2019-05-02T22:19:22.245Z,15.93
2019-05-02T22:21:52.480Z,15.77
2019-05-02T22:24:21.873Z,13.03
2019-05-02T22:26:52.630Z,12.50
2019-05-02T22:29:22.698Z,19.23
2019-05-02T22:31:54.246Z,25.33
2019-05-02T22:34:22.437Z,14.30
2019-05-02T22:36:53.893Z,11.03
2019-05-02T22:39:26.481Z,14.70
2019-05-02T22:41:55.432Z,13.60
2019-05-02T22:44:24.336Z,12.03
2019-05-02T22:46:53.406Z,15.77
2019-05-02T22:49:22.635Z,12.60
2019-05-02T22:51:51.717Z,20.83
2019-05-02T22:54:27.706Z,20.80
2019-05-02T22:56:52.082Z,16.33
2019-05-02T22:59:23.705Z,17.87
2019-05-02T23:01:52.736Z,15.47
2019-05-02T23:04:23.604Z,15.73
2019-05-02T23:06:53.018Z,14.77
2019-05-02T23:09:22.231Z,16.47
2019-05-02T23:11:51.917Z,14.90
2019-05-02T23:14:22.225Z,13.77
2019-05-02T23:16:52.908Z,19.17
2019-05-02T23:19:22.960Z,19.97
2019-05-02T23:21:52.697Z,14.37
2019-05-02T23:24:35.936Z,14.93
2019-05-02T23:26:55.548Z,14.07
2019-05-02T23:29:24.462Z,20.63
2019-05-02T23:31:53.444Z,15.47
2019-05-02T23:34:23.624Z,16.60
2019-05-02T23:36:52.656Z,16.17
2019-05-02T23:39:21.699Z,13.87
2019-05-02T23:41:52.374Z,17.37
2019-05-02T23:44:22.878Z,18.67
2019-05-02T23:46:51.894Z,22.23
2019-05-02T23:49:21.987Z,17.83
2019-05-02T23:51:51.336Z,19.60
2019-05-02T23:54:21.910Z,19.17
2019-05-02T23:56:50.973Z,20.53
2019-05-02T23:59:19.960Z,19.27
